Time;durP1;ratioP1;P1;durP2;ratioP2;P2;SDS_P1;SDS_P2;PMS_P1;PMS_P2;Temp;Humidity;BMP_temperature;BMP_pressure;BME280_temperature;BME280_humidity;BME280_pressure;Samples;Min_cycle;Max_cycle;Signal;HPM_P1;HPM_P2
2023/06/17 00:10:02;;;;;;;13.90;10.20;;;;;;;15.05;65.43;98230.50;435456;1249;97482;-44
2023/06/17 00:30:12;;;;;;;16.40;7.60;;;;;;;14.60;65.89;98221.83;435645;1253;98516;-42
2023/06/17 00:40:18;;;;;;;10.50;7.60;;;;;;;14.48;66.17;98228.47;435406;1253;97878;-43
2023/06/17 00:50:28;;;;;;;10.70;9.00;;;;;;;14.34;66.47;98222.45;435564;1253;111505;-45
2023/06/17 01:00:37;;;;;;;8.90;7.80;;;;;;;14.18;66.69;98215.79;435581;1251;108017;-42
2023/06/17 01:10:43;;;;;;;7.90;7.20;;;;;;;13.95;66.92;98207.60;436606;1247;97460;-42
2023/06/17 01:30:59;;;;;;;9.70;7.00;;;;;;;13.91;67.65;98213.37;436346;1247;97159;-43
2023/06/17 01:41:08;;;;;;;9.50;7.90;;;;;;;13.76;68.13;98211.04;436470;1253;109416;-42
2023/06/17 01:51:15;;;;;;;13.80;10.50;;;;;;;13.57;68.33;98215.52;436323;1253;107914;-43
2023/06/17 02:01:22;;;;;;;11.60;9.10;;;;;;;13.40;68.82;98216.92;436340;1248;97893;-42
2023/06/17 02:11:30;;;;;;;14.10;9.50;;;;;;;13.36;69.06;98216.42;436279;1253;109492;-41
2023/06/17 02:21:37;;;;;;;15.40;10.20;;;;;;;13.34;69.50;98220.40;436213;1253;98498;-43
2023/06/17 02:31:45;;;;;;;13.00;10.10;;;;;;;13.34;69.93;98220.02;436436;1252;110564;-43
2023/06/17 02:41:52;;;;;;;12.60;10.80;;;;;;;13.15;70.23;98214.64;436392;1253;108596;-42
2023/06/17 02:51:59;;;;;;;12.40;10.60;;;;;;;13.03;70.50;98215.82;436421;1248;97909;-44
2023/06/17 03:02:07;;;;;;;12.70;10.30;;;;;;;13.02;71.06;98220.92;436465;1253;107183;-42
2023/06/17 03:12:15;;;;;;;12.40;11.10;;;;;;;13.13;71.39;98226.14;436258;1261;97874;-42
2023/06/17 03:22:23;;;;;;;14.40;11.60;;;;;;;13.51;71.53;98224.58;436546;1253;110104;-43
2023/06/17 03:32:29;;;;;;;15.40;13.30;;;;;;;13.66;71.66;98220.29;435910;1247;519933;-42
2023/06/17 03:42:36;;;;;;;12.20;10.90;;;;;;;14.43;71.77;98215.77;436386;1248;97498;-45
2023/06/17 03:52:43;;;;;;;16.60;11.30;;;;;;;15.85;71.03;98215.00;436316;1254;108385;-43
2023/06/17 04:02:51;;;;;;;11.40;10.30;;;;;;;17.32;69.94;98216.80;436358;1253;97865;-43
2023/06/17 04:12:59;;;;;;;11.80;10.50;;;;;;;18.69;68.70;98218.83;436416;1253;108871;-44
2023/06/17 04:23:07;;;;;;;12.10;10.80;;;;;;;19.25;67.38;98215.70;436370;1248;107935;-44
2023/06/17 04:33:14;;;;;;;11.50;10.40;;;;;;;19.74;66.65;98220.64;436439;1253;97454;-43
2023/06/17 04:43:22;;;;;;;10.50;9.60;;;;;;;20.29;65.90;98225.77;436507;1254;110346;-43
2023/06/17 04:53:30;;;;;;;11.20;9.60;;;;;;;21.02;64.82;98231.21;436370;1253;107871;-43
2023/06/17 05:03:37;;;;;;;11.20;10.00;;;;;;;21.02;63.76;98234.33;436336;1248;97909;-43
2023/06/17 05:13:44;;;;;;;12.60;10.90;;;;;;;20.42;63.58;98240.84;436419;1247;111972;-42
2023/06/17 05:23:51;;;;;;;;;;;;;;;19.99;63.57;98246.53;436375;1254;108729;-43
2023/06/17 05:33:59;;;;;;;13.70;12.30;;;;;;;19.32;63.98;98246.40;436636;1250;97464;-42
2023/06/17 05:44:04;;;;;;;14.10;11.80;;;;;;;20.26;64.58;98247.06;436358;1252;107841;-43
2023/06/17 05:54:11;;;;;;;12.50;11.20;;;;;;;21.46;63.90;98244.59;436423;1248;97864;-41
2023/06/17 06:04:18;;;;;;;12.30;11.00;;;;;;;22.25;62.16;98246.19;436472;1247;111616;-42
2023/06/17 06:14:26;;;;;;;14.10;11.00;;;;;;;22.62;61.41;98251.08;436540;1250;107524;-42
2023/06/17 06:24:34;;;;;;;13.50;12.20;;;;;;;23.02;60.22;98254.05;436393;1253;97752;-42
2023/06/17 06:34:40;;;;;;;13.80;11.00;;;;;;;23.70;59.47;98263.63;436332;1253;109476;-42
2023/06/17 06:44:49;;;;;;;13.60;12.30;;;;;;;23.70;58.07;98270.20;436446;1252;108557;-42
2023/06/17 06:54:56;;;;;;;12.40;10.80;;;;;;;23.53;58.09;98271.04;436241;1251;97460;-43
2023/06/17 07:15:12;;;;;;;11.60;10.00;;;;;;;23.43;56.98;98276.86;436341;1251;108877;-43
2023/06/17 07:25:20;;;;;;;10.80;9.60;;;;;;;23.28;56.78;98282.63;436514;1251;97851;-42
2023/06/17 07:35:28;;;;;;;12.20;9.10;;;;;;;23.36;57.01;98275.94;436360;1254;110583;-42
2023/06/17 07:45:36;;;;;;;10.10;9.20;;;;;;;23.74;57.23;98272.42;436413;1249;109040;-42
2023/06/17 07:55:43;;;;;;;10.00;8.80;;;;;;;24.26;56.28;98262.91;436294;1253;97966;-43
2023/06/17 08:15:57;;;;;;;10.00;9.00;;;;;;;24.08;54.92;98256.38;436282;1252;108373;-42
2023/06/17 08:26:05;;;;;;;10.10;9.20;;;;;;;24.33;55.00;98250.22;436244;1251;97832;-41
2023/06/17 08:36:12;;;;;;;9.30;8.40;;;;;;;24.50;54.37;98255.63;436351;1253;110583;-43
2023/06/17 08:46:22;;;;;;;9.30;8.00;;;;;;;24.00;54.33;98257.60;436360;1254;107330;-42
2023/06/17 08:56:30;;;;;;;9.00;8.10;;;;;;;23.81;54.23;98260.61;436408;1251;97933;-43
2023/06/17 09:06:35;;;;;;;;;;;;;;;23.52;54.40;98264.38;436444;1253;110301;-42
2023/06/17 09:16:43;;;;;;;7.90;7.20;;;;;;;24.12;54.28;98253.42;436345;1253;109908;-42
2023/06/17 09:26:51;;;;;;;9.10;7.20;;;;;;;24.76;53.47;98256.15;436442;1251;97874;-43
2023/06/17 09:47:05;;;;;;;6.50;5.90;;;;;;;24.71;51.73;98250.25;436437;1248;107629;-41
2023/06/17 10:07:20;;;;;;;10.30;6.90;;;;;;;25.23;50.29;98241.25;436437;1254;109775;-43
2023/06/17 10:17:29;;;;;;;6.90;6.40;;;;;;;24.91;49.79;98233.91;436357;1251;108270;-41
2023/06/17 10:27:36;;;;;;;14.50;5.50;;;;;;;25.11;49.71;98231.27;436452;1253;96628;-41
2023/06/17 10:37:41;;;;;;;11.10;6.80;;;;;;;25.27;49.68;98230.42;436361;1252;108994;-42
2023/06/17 10:47:49;;;;;;;5.80;5.30;;;;;;;25.59;49.12;98223.98;436317;1251;108120;-41
2023/06/17 11:18:11;;;;;;;5.70;5.00;;;;;;;24.05;49.10;98230.02;436208;1251;107567;-42
2023/06/17 11:28:20;;;;;;;7.60;5.70;;;;;;;24.87;48.03;98225.08;436451;1253;97874;-42
2023/06/17 11:38:28;;;;;;;7.00;6.10;;;;;;;24.70;47.93;98227.73;436400;1253;110476;-41
2023/06/17 11:48:36;;;;;;;6.60;5.20;;;;;;;24.49;48.21;98225.73;436352;1254;107581;-42
2023/06/17 11:58:44;;;;;;;8.40;5.10;;;;;;;24.41;48.16;98219.36;436387;1254;97356;-42
2023/06/17 12:08:58;;;;;;;6.80;5.40;;;;;;;24.15;48.67;98216.89;436446;1261;109130;-41
2023/06/17 12:19:07;;;;;;;6.60;4.80;;;;;;;24.01;48.75;98208.95;436279;1253;107516;-41
2023/06/17 12:29:15;;;;;;;5.30;4.60;;;;;;;23.87;49.05;98206.88;436305;1251;97490;-42
2023/06/17 12:39:31;;;;;;;;;;;;;;;23.91;49.33;98209.87;436358;1254;110311;-43
2023/06/17 12:49:39;;;;;;;5.40;4.30;;;;;;;23.58;49.61;98214.03;436357;1252;108482;-42
2023/06/17 12:59:47;;;;;;;5.30;4.90;;;;;;;23.36;49.78;98210.20;436349;1261;97851;-41
2023/06/17 13:09:55;;;;;;;5.30;4.90;;;;;;;23.49;49.86;98199.63;436354;1248;110235;-42
2023/06/17 13:20:01;;;;;;;5.50;4.90;;;;;;;23.92;50.01;98196.46;436468;1254;108275;-42
2023/06/17 13:30:10;;;;;;;4.50;4.10;;;;;;;24.31;49.72;98197.21;436313;1250;96663;-42
2023/06/17 13:40:17;;;;;;;5.20;4.20;;;;;;;24.50;49.68;98193.66;436451;1254;109858;-41
2023/06/17 13:50:26;;;;;;;5.80;5.40;;;;;;;24.62;49.19;98191.14;436311;1254;108538;-42
2023/06/17 14:10:40;;;;;;;5.80;4.20;;;;;;;24.67;49.26;98188.63;436295;1253;110837;-42
2023/06/17 14:20:47;;;;;;;5.00;4.60;;;;;;;24.74;48.56;98183.55;436276;1251;108615;-42
2023/06/17 14:30:55;;;;;;;4.70;4.10;;;;;;;24.78;47.80;98179.82;436379;1254;117750;-43
2023/06/17 14:41:02;;;;;;;5.50;3.70;;;;;;;25.15;46.67;98178.00;436352;1253;107251;-43
2023/06/17 15:01:16;;;;;;;5.20;4.20;;;;;;;25.49;45.13;98166.73;436314;1248;110496;-41
2023/06/17 15:11:24;;;;;;;6.10;4.20;;;;;;;25.17;44.68;98172.20;436379;1254;107495;-41
2023/06/17 15:21:31;;;;;;;5.80;5.10;;;;;;;24.57;44.99;98166.86;436452;1254;97871;-42
2023/06/17 15:31:40;;;;;;;6.60;4.60;;;;;;;24.21;45.46;98172.11;436152;1254;425249;-41
2023/06/17 15:41:46;;;;;;;5.70;5.20;;;;;;;23.99;46.26;98176.62;436378;1248;107551;-42
2023/06/17 15:51:54;;;;;;;9.30;8.30;;;;;;;24.15;46.54;98186.80;436426;1252;97884;-42
2023/06/17 16:02:01;;;;;;;8.90;7.40;;;;;;;23.76;47.11;98195.02;436288;1252;109252;-43
2023/06/17 16:12:11;;;;;;;10.40;9.30;;;;;;;23.30;48.68;98196.80;436205;1248;107556;-42
2023/06/17 16:22:19;;;;;;;11.20;10.20;;;;;;;22.87;50.79;98207.23;436245;1248;99221;-47
2023/06/17 16:32:27;;;;;;;14.10;12.10;;;;;;;22.45;52.09;98206.52;436439;1248;111789;-43
2023/06/17 16:42:36;;;;;;;14.60;12.90;;;;;;;22.19;53.19;98197.02;436299;1261;107929;-44
2023/06/17 16:52:44;;;;;;;12.60;11.40;;;;;;;22.01;53.62;98204.38;436388;1253;99212;-44
2023/06/17 17:02:50;;;;;;;;;;;;;;;21.80;54.18;98212.05;436307;1254;106798;-43
2023/06/17 17:12:57;;;;;;;11.60;10.40;;;;;;;21.64;54.57;98219.05;436525;1248;98010;-44
2023/06/17 17:23:05;;;;;;;17.10;11.00;;;;;;;21.65;54.96;98229.29;436401;1253;111389;-44
2023/06/17 17:33:12;;;;;;;;;;;;;;;21.64;55.02;98232.55;436296;1253;108548;-44
2023/06/17 17:43:19;;;;;;;11.10;10.10;;;;;;;21.28;55.21;98241.99;436414;1252;99410;-44
2023/06/17 17:53:27;;;;;;;12.30;10.80;;;;;;;20.96;55.54;98241.10;436333;1253;109393;-44
2023/06/17 18:03:33;;;;;;;;;;;;;;;20.71;55.97;98244.97;436490;1252;97989;-43
2023/06/17 18:13:41;;;;;;;12.70;11.20;;;;;;;20.49;56.36;98251.55;436347;1248;110950;-43
2023/06/17 18:23:49;;;;;;;13.00;11.70;;;;;;;20.27;56.87;98258.66;436311;1248;108479;-43
2023/06/17 18:33:56;;;;;;;14.60;12.00;;;;;;;20.12;57.51;98261.61;436438;1254;97991;-44
2023/06/17 18:44:04;;;;;;;15.00;11.20;;;;;;;20.02;57.90;98268.70;436292;1253;108585;-44
2023/06/17 18:54:11;;;;;;;13.40;11.70;;;;;;;19.88;58.23;98279.16;436317;1250;99169;-44
2023/06/17 19:04:17;;;;;;;;;;;;;;;19.64;58.67;98291.48;436337;1254;112000;-42
2023/06/17 19:14:25;;;;;;;21.70;17.10;;;;;;;19.32;58.74;98297.33;436181;1252;107640;-42
2023/06/17 19:24:32;;;;;;;16.60;14.80;;;;;;;19.09;59.20;98307.46;436393;1248;99206;-43
2023/06/17 19:34:40;;;;;;;13.80;11.10;;;;;;;18.76;59.41;98309.73;436306;1248;108550;-44
2023/06/17 19:44:55;;;;;;;12.70;11.30;;;;;;;18.43;59.97;98314.67;436169;1248;99240;-44
2023/06/17 19:55:03;;;;;;;14.90;13.10;;;;;;;18.15;60.37;98318.63;436447;1248;111244;-43
2023/06/17 20:05:12;;;;;;;14.80;12.50;;;;;;;17.91;60.63;98329.65;436421;1253;105712;-43
2023/06/17 20:15:20;;;;;;;15.40;12.30;;;;;;;17.62;60.95;98337.42;436421;1250;99576;-43
2023/06/17 20:25:28;;;;;;;17.50;12.30;;;;;;;17.57;61.48;98338.16;436311;1250;107889;-42
2023/06/17 20:35:35;;;;;;;23.10;17.00;;;;;;;17.60;61.70;98338.17;436319;1248;99337;-43
2023/06/17 20:45:43;;;;;;;20.60;16.90;;;;;;;17.46;61.88;98337.89;436287;1248;110771;-44
2023/06/17 20:55:50;;;;;;;16.00;13.90;;;;;;;17.06;62.07;98341.95;436292;1250;108799;-45
2023/06/17 21:05:58;;;;;;;19.50;14.80;;;;;;;16.74;62.51;98346.48;436431;1247;99341;-43
2023/06/17 21:16:05;;;;;;;15.80;13.70;;;;;;;16.53;62.82;98343.68;436465;1253;107853;-44
2023/06/17 21:26:13;;;;;;;16.30;12.70;;;;;;;16.36;63.31;98354.12;436387;1252;98824;-45
2023/06/17 21:36:19;;;;;;;15.10;13.30;;;;;;;16.23;63.74;98351.60;436434;1253;111896;-42
2023/06/17 21:46:27;;;;;;;15.80;14.00;;;;;;;16.03;64.18;98359.89;436398;1253;107659;-42
2023/06/17 21:56:35;;;;;;;15.30;12.60;;;;;;;15.85;64.56;98357.92;436260;1248;98027;-42
2023/06/17 22:06:41;;;;;;;16.70;12.50;;;;;;;15.74;65.12;98356.76;436231;1247;108161;-42
2023/06/17 22:16:49;;;;;;;19.90;14.90;;;;;;;15.68;65.51;98352.52;436371;1251;97969;-42
2023/06/17 22:26:56;;;;;;;19.00;15.70;;;;;;;15.43;65.60;98355.54;436401;1247;112429;-42
2023/06/17 22:37:04;;;;;;;15.60;11.50;;;;;;;15.07;65.83;98350.36;436166;1252;108262;-41
2023/06/17 22:47:11;;;;;;;14.60;12.60;;;;;;;14.79;66.32;98344.64;436376;1248;99314;-44
2023/06/17 22:57:19;;;;;;;16.20;12.30;;;;;;;14.55;67.13;98354.54;436362;1253;108254;-45
2023/06/17 23:07:26;;;;;;;16.40;14.50;;;;;;;14.33;67.48;98349.16;436509;1250;99214;-42
2023/06/17 23:17:33;;;;;;;18.60;16.70;;;;;;;14.18;68.40;98355.33;436420;1253;111755;-43
2023/06/17 23:27:43;;;;;;;19.70;15.50;;;;;;;14.20;68.86;98355.91;436334;1248;108590;-41
2023/06/17 23:37:50;;;;;;;18.80;13.60;;;;;;;14.24;69.16;98353.82;436403;1251;99185;-43
2023/06/17 23:47:56;;;;;;;17.40;15.30;;;;;;;14.40;69.48;98346.65;436354;1248;107653;-45
2023/06/17 23:58:04;;;;;;;17.50;14.40;;;;;;;14.51;69.55;98346.23;436528;1247;99218;-42
